createdAt,value
2023-09-07T00:02:40.192Z,17.76
2023-09-07T00:05:48.462Z,17.72
2023-09-07T00:08:54.772Z,17.79
2023-09-07T00:12:02.987Z,17.52
2023-09-07T00:15:11.827Z,17.62
2023-09-07T00:18:20.385Z,17.68
2023-09-07T00:21:27.187Z,17.75
2023-09-07T00:24:33.842Z,17.45
2023-09-07T00:27:41.847Z,17.51
2023-09-07T00:30:48.352Z,17.71
2023-09-07T00:33:55.057Z,17.53
2023-09-07T00:37:02.986Z,17.60
2023-09-07T00:40:11.104Z,17.66
2023-09-07T00:43:18.756Z,17.70
2023-09-07T00:46:25.237Z,17.76
2023-09-07T00:49:31.722Z,17.65
2023-09-07T00:52:41.451Z,17.77
2023-09-07T00:55:48.350Z,17.68
2023-09-07T00:58:57.083Z,17.72
2023-09-07T01:02:06.698Z,17.66
2023-09-07T01:05:14.130Z,17.72
2023-09-07T01:08:26.318Z,17.49
2023-09-07T01:11:39.450Z,17.59
2023-09-07T01:14:47.247Z,17.62
2023-09-07T01:17:54.643Z,17.71
2023-09-07T01:21:02.660Z,17.42
2023-09-07T01:24:12.713Z,17.46
2023-09-07T01:27:19.182Z,17.50
2023-09-07T01:30:25.849Z,17.53
2023-09-07T01:33:32.442Z,17.63
2023-09-07T01:36:39.037Z,17.70
2023-09-07T01:39:46.930Z,17.80
2023-09-07T01:42:53.078Z,17.64
2023-09-07T01:45:59.489Z,17.72
2023-09-07T01:49:05.851Z,17.62
2023-09-07T01:52:12.168Z,17.65
2023-09-07T01:55:20.176Z,17.45
2023-09-07T01:58:26.323Z,17.53
2023-09-07T02:01:37.976Z,17.56
2023-09-07T02:04:47.329Z,17.64
2023-09-07T02:07:53.792Z,17.72
2023-09-07T02:11:02.292Z,17.83
2023-09-07T02:17:19.422Z,17.65
2023-09-07T02:20:25.980Z,17.63
2023-09-07T02:23:32.881Z,17.62
2023-09-07T02:26:45.001Z,17.44
2023-09-07T02:29:51.780Z,17.64
2023-09-07T02:32:58.711Z,17.60
2023-09-07T02:36:05.638Z,17.52
2023-09-07T02:39:12.900Z,17.44
2023-09-07T02:42:20.999Z,17.33
2023-09-07T02:45:27.769Z,17.38
2023-09-07T02:48:34.617Z,17.37
2023-09-07T02:51:41.081Z,17.55
2023-09-07T02:54:48.559Z,17.53
2023-09-07T02:57:56.805Z,17.50
2023-09-07T03:01:07.736Z,17.44
2023-09-07T03:04:14.476Z,17.46
2023-09-07T03:07:21.338Z,17.47
2023-09-07T03:10:28.497Z,17.46
2023-09-07T03:13:36.717Z,17.41
2023-09-07T03:16:43.441Z,17.33
2023-09-07T03:19:50.166Z,17.44
2023-09-07T03:22:57.434Z,17.42
2023-09-07T03:26:03.952Z,17.32
2023-09-07T03:29:11.746Z,17.42
2023-09-07T03:32:18.570Z,17.48
2023-09-07T03:35:25.187Z,17.32
2023-09-07T03:38:32.156Z,17.36
2023-09-07T03:41:39.182Z,17.37
2023-09-07T03:44:47.129Z,17.53
2023-09-07T03:47:53.490Z,17.46
2023-09-07T03:50:59.673Z,17.53
2023-09-07T03:54:05.938Z,17.46
2023-09-07T03:57:12.544Z,17.48
2023-09-07T04:00:21.134Z,17.34
2023-09-07T04:03:27.557Z,17.46
2023-09-07T04:06:34.254Z,17.50
2023-09-07T04:09:42.843Z,17.48
2023-09-07T04:12:50.788Z,17.46
2023-09-07T04:15:58.341Z,17.46
2023-09-07T04:19:04.919Z,17.55
2023-09-07T04:22:11.111Z,17.54
2023-09-07T04:25:17.435Z,17.56
2023-09-07T04:28:23.936Z,17.43
2023-09-07T04:31:32.344Z,17.59
2023-09-07T04:34:38.707Z,17.59
2023-09-07T04:37:45.665Z,17.60
2023-09-07T04:40:52.179Z,17.68
2023-09-07T04:43:59.384Z,17.67
2023-09-07T04:47:07.166Z,17.75
2023-09-07T04:50:14.690Z,17.82
2023-09-07T04:53:21.513Z,17.90
2023-09-07T04:56:30.285Z,17.82
2023-09-07T04:59:47.854Z,17.83
2023-09-07T05:02:55.944Z,17.99
2023-09-07T05:06:04.202Z,18.10
2023-09-07T05:09:10.848Z,17.97
2023-09-07T05:12:19.968Z,18.05
2023-09-07T05:15:27.307Z,18.11
2023-09-07T05:18:35.665Z,18.10
2023-09-07T05:21:42.623Z,18.35
2023-09-07T05:24:49.162Z,18.41
2023-09-07T05:27:55.699Z,18.56
2023-09-07T05:31:02.260Z,18.56
2023-09-07T05:34:10.003Z,18.70
2023-09-07T05:37:16.266Z,18.56
2023-09-07T05:40:22.827Z,18.71
2023-09-07T05:43:29.186Z,18.77
2023-09-07T05:46:35.596Z,18.73
2023-09-07T05:49:43.350Z,18.77
2023-09-07T05:52:49.483Z,18.64
2023-09-07T05:55:55.881Z,18.86
2023-09-07T05:59:02.352Z,18.78
2023-09-07T06:02:09.521Z,18.53
2023-09-07T06:05:17.843Z,18.92
2023-09-07T06:08:24.015Z,18.67
2023-09-07T06:11:31.557Z,18.99
2023-09-07T06:14:37.994Z,18.94
2023-09-07T06:17:44.665Z,18.88
2023-09-07T06:20:52.415Z,18.87
2023-09-07T06:23:58.791Z,18.87
2023-09-07T06:27:06.150Z,18.92
2023-09-07T06:30:13.207Z,19.13
2023-09-07T06:33:19.736Z,19.13
2023-09-07T06:36:41.427Z,18.80
2023-09-07T06:39:52.746Z,19.01
2023-09-07T06:42:59.653Z,19.05
2023-09-07T06:46:09.835Z,19.02
2023-09-07T06:49:16.459Z,19.56
2023-09-07T06:52:24.598Z,19.76
2023-09-07T06:55:31.382Z,20.29
2023-09-07T06:58:37.921Z,20.79
2023-09-07T07:01:44.645Z,21.15
2023-09-07T07:04:51.524Z,21.39
2023-09-07T07:07:59.575Z,21.67
2023-09-07T07:11:06.211Z,21.09
2023-09-07T07:14:13.137Z,21.43
2023-09-07T07:17:19.936Z,20.73
2023-09-07T07:20:26.384Z,21.51
2023-09-07T07:23:34.325Z,21.90
2023-09-07T07:26:41.009Z,22.01
2023-09-07T07:29:47.488Z,21.23
2023-09-07T07:32:54.052Z,21.55
2023-09-07T07:36:00.345Z,22.07
2023-09-07T07:39:09.420Z,21.27
2023-09-07T07:42:16.196Z,20.97
2023-09-07T07:45:23.232Z,21.31
2023-09-07T07:48:30.775Z,20.91
2023-09-07T07:51:37.235Z,20.95
2023-09-07T07:54:44.956Z,20.99
2023-09-07T07:57:51.308Z,21.05
2023-09-07T08:00:59.179Z,21.21
2023-09-07T08:04:05.354Z,21.52
2023-09-07T08:07:11.650Z,20.64
2023-09-07T08:10:19.329Z,21.45
2023-09-07T08:13:25.702Z,21.80
2023-09-07T08:16:32.102Z,21.65
2023-09-07T08:19:39.385Z,21.84
2023-09-07T08:22:46.921Z,22.23
2023-09-07T08:25:55.461Z,23.30
2023-09-07T08:29:06.597Z,23.73
2023-09-07T08:32:15.148Z,22.94
2023-09-07T08:35:21.474Z,23.11
2023-09-07T08:38:29.697Z,22.75
2023-09-07T08:41:58.190Z,22.28
2023-09-07T08:45:10.846Z,22.58
2023-09-07T08:48:21.944Z,22.69
2023-09-07T08:51:29.370Z,23.20
2023-09-07T08:54:38.342Z,22.96
2023-09-07T08:57:45.899Z,22.47
2023-09-07T09:00:54.039Z,22.66
2023-09-07T09:04:01.393Z,22.51
2023-09-07T09:07:07.586Z,22.25
2023-09-07T09:10:13.967Z,22.21
2023-09-07T09:13:31.815Z,21.64
2023-09-07T09:16:38.563Z,21.87
2023-09-07T09:19:44.946Z,21.55
2023-09-07T09:22:54.306Z,21.66
2023-09-07T09:26:02.172Z,21.18
2023-09-07T09:29:12.477Z,21.33
2023-09-07T09:32:18.631Z,21.38
2023-09-07T09:35:25.898Z,21.50
2023-09-07T09:38:33.762Z,21.54
2023-09-07T09:41:41.178Z,21.41
2023-09-07T09:44:53.045Z,21.99
2023-09-07T09:48:01.616Z,21.98
2023-09-07T09:51:09.709Z,21.77
2023-09-07T09:54:16.185Z,21.98
2023-09-07T09:57:23.260Z,21.91
2023-09-07T10:00:33.142Z,22.61
2023-09-07T10:03:47.281Z,21.87
2023-09-07T10:06:57.958Z,21.61
2023-09-07T10:10:04.998Z,22.30
2023-09-07T10:13:11.586Z,21.91
2023-09-07T10:16:59.413Z,21.99
2023-09-07T10:20:07.728Z,21.69
2023-09-07T10:23:14.361Z,21.55
2023-09-07T10:26:23.054Z,21.71
2023-09-07T10:29:30.099Z,21.66
2023-09-07T10:32:42.883Z,21.76
2023-09-07T10:35:49.183Z,21.79
2023-09-07T10:38:57.584Z,21.48
2023-09-07T10:42:04.354Z,21.64
2023-09-07T10:45:14.192Z,21.64
2023-09-07T10:48:22.366Z,21.53
2023-09-07T10:51:28.655Z,21.62
2023-09-07T10:54:35.399Z,20.88
2023-09-07T10:57:46.082Z,21.01
2023-09-07T11:00:55.118Z,21.15
2023-09-07T11:04:03.656Z,21.56
2023-09-07T11:07:10.170Z,21.76
2023-09-07T11:10:16.715Z,21.74
2023-09-07T11:13:24.217Z,21.75
2023-09-07T11:16:31.734Z,21.88
2023-09-07T11:19:39.369Z,21.61
2023-09-07T11:23:02.847Z,21.72
2023-09-07T11:26:11.351Z,21.85
2023-09-07T11:29:17.992Z,21.79
2023-09-07T11:32:24.248Z,21.66
2023-09-07T11:35:31.964Z,21.54
2023-09-07T11:38:39.350Z,21.54
2023-09-07T11:41:46.532Z,21.40
2023-09-07T11:44:52.888Z,21.37
2023-09-07T11:47:59.255Z,21.56
2023-09-07T11:51:08.411Z,21.47
2023-09-07T11:54:14.881Z,21.51
2023-09-07T11:57:21.339Z,21.25
2023-09-07T12:00:28.112Z,21.27
2023-09-07T12:03:35.825Z,21.05
2023-09-07T12:06:44.248Z,21.06
2023-09-07T12:09:51.755Z,21.22
2023-09-07T12:12:58.236Z,21.15
2023-09-07T12:16:04.810Z,21.01
2023-09-07T12:19:11.312Z,20.82
2023-09-07T12:22:19.594Z,20.97
2023-09-07T12:25:26.505Z,20.91
2023-09-07T12:28:33.200Z,20.67
2023-09-07T12:31:39.367Z,20.82
2023-09-07T12:34:45.672Z,21.14
2023-09-07T12:38:31.835Z,21.05
2023-09-07T12:41:38.024Z,21.09
2023-09-07T12:44:44.352Z,21.42
2023-09-07T12:47:50.878Z,21.31
2023-09-07T12:50:57.721Z,21.33
2023-09-07T12:54:05.674Z,21.05
2023-09-07T12:57:12.196Z,21.33
2023-09-07T13:00:19.844Z,20.99
2023-09-07T13:03:26.488Z,21.12
2023-09-07T13:06:33.076Z,21.28
2023-09-07T13:09:41.312Z,21.08
2023-09-07T13:12:47.626Z,21.40
2023-09-07T13:15:54.382Z,21.49
2023-09-07T13:19:01.336Z,21.32
2023-09-07T13:22:08.675Z,21.49
2023-09-07T13:25:16.680Z,21.75
2023-09-07T13:28:23.476Z,21.45
2023-09-07T13:31:30.208Z,21.25
2023-09-07T13:34:36.741Z,21.38
2023-09-07T13:37:43.227Z,21.27
2023-09-07T13:40:51.094Z,21.72
2023-09-07T13:43:58.002Z,21.71
2023-09-07T13:47:04.251Z,21.77
2023-09-07T13:50:10.673Z,21.55
2023-09-07T13:53:17.069Z,21.22
2023-09-07T13:56:24.784Z,21.48
2023-09-07T13:59:34.068Z,21.40
2023-09-07T14:02:40.259Z,21.45
2023-09-07T14:05:46.648Z,21.18
2023-09-07T14:08:53.904Z,21.31
2023-09-07T14:12:01.455Z,21.20
2023-09-07T14:15:08.540Z,21.28
2023-09-07T14:18:14.826Z,21.49
2023-09-07T14:21:21.276Z,21.28
2023-09-07T14:24:27.679Z,21.22
2023-09-07T14:27:35.536Z,21.15
2023-09-07T14:30:42.225Z,21.06
2023-09-07T14:33:49.765Z,21.18
2023-09-07T14:36:56.304Z,21.30
2023-09-07T14:40:02.657Z,21.12
2023-09-07T14:43:12.207Z,20.85
2023-09-07T14:46:18.753Z,20.77
2023-09-07T14:49:25.326Z,20.52
2023-09-07T14:52:32.430Z,20.63
2023-09-07T14:55:39.201Z,20.67
2023-09-07T14:58:47.080Z,20.61
2023-09-07T15:02:02.500Z,20.46
2023-09-07T15:05:11.597Z,20.43
2023-09-07T15:08:18.210Z,20.41
2023-09-07T15:11:25.286Z,20.41
2023-09-07T15:14:33.073Z,20.65
2023-09-07T15:17:41.328Z,20.41
2023-09-07T15:20:47.749Z,20.49
2023-09-07T15:23:54.066Z,20.46
2023-09-07T15:27:00.892Z,20.43
2023-09-07T15:30:09.775Z,20.33
2023-09-07T15:33:16.515Z,20.29
2023-09-07T15:36:22.819Z,20.21
2023-09-07T15:39:30.656Z,19.99
2023-09-07T15:42:37.174Z,19.93
2023-09-07T15:45:46.653Z,20.10
2023-09-07T15:48:54.892Z,20.20
2023-09-07T15:52:01.494Z,20.40
2023-09-07T15:55:08.587Z,20.20
2023-09-07T15:58:15.984Z,20.28
2023-09-07T16:01:23.918Z,20.14
2023-09-07T16:04:30.541Z,20.15
2023-09-07T16:07:36.645Z,19.96
2023-09-07T16:10:43.098Z,19.86
2023-09-07T16:13:49.576Z,19.72
2023-09-07T16:16:57.765Z,19.66
2023-09-07T16:20:04.160Z,19.61
2023-09-07T16:23:11.306Z,19.51
2023-09-07T16:26:18.225Z,19.48
2023-09-07T16:29:24.758Z,19.35
2023-09-07T16:32:32.911Z,19.34
2023-09-07T16:35:39.964Z,19.34
2023-09-07T16:38:46.476Z,19.44
2023-09-07T16:41:53.161Z,19.27
2023-09-07T16:44:59.936Z,19.37
2023-09-07T16:48:08.329Z,19.32
2023-09-07T16:51:14.601Z,19.35
2023-09-07T16:54:21.443Z,19.35
2023-09-07T16:57:29.461Z,19.35
2023-09-07T17:00:36.449Z,19.09
2023-09-07T17:03:44.495Z,19.09
2023-09-07T17:07:02.008Z,19.16
2023-09-07T17:10:14.242Z,19.18
2023-09-07T17:13:20.498Z,19.12
2023-09-07T17:16:27.447Z,19.07
2023-09-07T17:19:35.572Z,19.06
2023-09-07T17:22:46.886Z,19.09
2023-09-07T17:25:53.731Z,18.95
2023-09-07T17:29:00.138Z,18.81
2023-09-07T17:32:07.341Z,18.58
2023-09-07T17:35:15.411Z,18.69
2023-09-07T17:38:22.593Z,18.94
2023-09-07T17:41:30.548Z,18.83
2023-09-07T17:44:38.018Z,18.77
2023-09-07T17:47:45.738Z,18.73
2023-09-07T17:50:53.839Z,18.83
2023-09-07T17:54:00.357Z,18.71
2023-09-07T17:57:06.922Z,18.75
2023-09-07T18:00:14.602Z,18.74
2023-09-07T18:03:21.439Z,18.59
2023-09-07T18:06:29.475Z,18.52
2023-09-07T18:09:36.254Z,18.56
2023-09-07T18:12:42.587Z,18.67
2023-09-07T18:15:49.038Z,18.49
2023-09-07T18:18:55.480Z,18.58
2023-09-07T18:22:03.801Z,18.08
2023-09-07T18:25:10.432Z,18.20
2023-09-07T18:28:16.734Z,18.18
2023-09-07T18:31:23.129Z,18.20
2023-09-07T18:34:30.042Z,18.24
2023-09-07T18:37:39.616Z,18.45
2023-09-07T18:40:47.807Z,18.41
2023-09-07T18:43:54.487Z,18.48
2023-09-07T18:47:01.124Z,18.48
2023-09-07T18:50:11.702Z,18.51
2023-09-07T18:53:21.115Z,18.50
2023-09-07T18:56:27.752Z,18.50
2023-09-07T18:59:35.780Z,18.50
2023-09-07T19:02:42.625Z,18.53
2023-09-07T19:05:49.502Z,18.44
2023-09-07T19:08:57.266Z,18.44
2023-09-07T19:12:04.531Z,18.38
2023-09-07T19:15:11.702Z,18.39
2023-09-07T19:18:18.249Z,18.48
2023-09-07T19:21:27.706Z,18.32
2023-09-07T19:24:35.501Z,18.27
2023-09-07T19:27:41.776Z,18.29
2023-09-07T19:30:48.400Z,18.26
2023-09-07T19:33:56.133Z,17.86
2023-09-07T19:37:03.891Z,17.76
2023-09-07T19:40:13.626Z,17.89
2023-09-07T19:43:20.173Z,18.07
2023-09-07T19:46:27.186Z,18.09
2023-09-07T19:49:33.711Z,18.06
2023-09-07T19:52:39.962Z,18.00
2023-09-07T19:55:48.053Z,18.10
2023-09-07T19:58:54.980Z,18.10
2023-09-07T20:02:04.024Z,18.08
2023-09-07T20:05:11.865Z,18.01
